Alexandria, Canada
Current Conditions -  °F | °C
As of 4:53 PM on Thursday 27 Nov 2014 (Local Time) from KMSS Reporting Station
Overcast Overcast  
Wind Chill: 28°   Ceiling: 3800
Heat Index: 28°   Visibility: 10mi
Dew Point: 18°   Wind: 0mph
Humidity: 66%   Direction: NA
Pressure: 30.06"   Gusts: NA
Location:  45.3°N, 74.63°W
Report Text: KMSS 272153Z AUTO 00000KT 10SM OVC038 M02/M08 A3006 RMK AO2 SLP184 T10221078
Loading
Personal Weather Stations






























Interactive Weather Map New forecast layout! Learn more

10-Day Weather Forecast

Advertisements
Track Severe Weather on mobile